Pagina principale
METAR-TAF:

METAR-TAF

Aeroporti :

Aeroporto di Pau-Pyrénées

Pau, Francia

latitudine: 43-23N, longitudine: 000-25W, altezza: 188 m

Osservazione

Il bollettino è stato emesso 17 minuti fa, alle 23:30 UTC
Vento 2 kt da sud-est
Temperature 5°C
Umidità 93%
Pressione 1032 hPa
Visibilità: 9000 m

METAR: LFBP 232330Z AUTO 13002KT 9000 NSC 05/04 Q1032 TEMPO 0500 FG VV///

Ora: 00:47 (23:47 UTC)

Previsione

Il bollettino è stato emesso 1 ora e 47 minuti fa, alle 22:00 UTC
Previsione valida dal 23 alle 22 UTC al 24 alle 18 UTC
Vento 3 kt da direzioni variabili
Visibilità 10 km o più
nessuna nube inferiore a 1500 m e nessun cumulonembo
Probabilità 40%
dal 23 alle 23 UTC al 24 alle 09 UTC
Visibilità: 0500 m
nebbia
Evoluzione graduale
dal 24 alle 09 UTC al 24 alle 11 UTC
Visibilità 10 km o più
nessuna nube inferiore a 1500 m e nessun cumulonembo

TAF: LFBP 232200Z 2322/2418 VRB03KT CAVOK PROB40 2323/2409 0500 FG VV/// BECMG 2409/2411 CAVOK

Osservazioni e previsioni meteorologiche di più di 4000 aeroporti (messaggi METAR e TAF).

Le stazioni disponibili sono rappresentate dai dischi gialli e rossi sulla carta.

Puntare il mouse per vedere il nome della stazione.

Clicca sopra per visualizzare le osservazioni e previsioni meteorologiche.

Per cambiare la mappa : fare clic sui pulsanti verdi con una croce nera per ingrandire, il pulsante verde con un trattino per diminuire, o sulla freccia verde per le mappe adiacenti.


METAR-TAF: